Palm Village, Texas
Current Conditions -  °F | °C
As of 1:53 PM on Saturday 25 Oct 2014 (Local Time) from KBRO Reporting Station
Few Clouds Few Clouds  
Wind Chill: 85°   Ceiling: Unl
Heat Index: 88°   Visibility: 10mi
Dew Point: 67°   Wind: 5mph
Humidity: 55%   Direction: NA
Pressure: 30.11"   Gusts: NA
Location:  26.0002°N, 97.5729°W
Report Text: KBRO 251853Z VRB04KT 10SM FEW039 29/19 A3011 RMK AO2 SLP194 T02940194 $
Loading
Personal Weather Stations






























Interactive Weather Map
Tropical Storm Tracking
New forecast layout! Learn more

10-Day Weather Forecast

Advertisements
Track Severe Weather on mobile